Time;durP1;ratioP1;P1;durP2;ratioP2;P2;SDS_P1;SDS_P2;PMS_P1;PMS_P2;Temp;Humidity;BMP_temperature;BMP_pressure;BME280_temperature;BME280_humidity;BME280_pressure;Samples;Min_cycle;Max_cycle;Signal;HPM_P1;HPM_P2
2022/11/21 00:00:54;;;;;;;15.02;7.10;;;;;;;5.91;100.00;100403.94;5095266;28;20382;-60
2022/11/21 00:03:20;;;;;;;21.08;8.10;;;;;;;5.89;100.00;100411.94;5111768;28;20026;-60
2022/11/21 00:05:48;;;;;;;14.68;7.43;;;;;;;5.86;100.00;100403.34;5093697;28;20104;-60
2022/11/21 00:08:17;;;;;;;17.90;8.18;;;;;;;5.81;100.00;100400.91;5111916;28;20027;-60
2022/11/21 00:10:43;;;;;;;18.77;7.38;;;;;;;5.87;100.00;100418.22;5104253;28;20028;-60
2022/11/21 00:13:15;;;;;;;19.17;7.68;;;;;;;5.85;100.00;100418.31;5110435;28;20035;-59
2022/11/21 00:15:40;;;;;;;11.40;7.40;;;;;;;5.87;100.00;100423.50;5094024;28;20063;-60
2022/11/21 00:18:06;;;;;;;10.52;6.75;;;;;;;5.86;100.00;100421.81;5089938;28;20060;-59
2022/11/21 00:20:31;;;;;;;16.35;6.85;;;;;;;5.77;100.00;100417.00;5107073;28;20032;-60
2022/11/21 00:22:59;;;;;;;15.45;7.22;;;;;;;5.73;100.00;100437.38;5092602;28;20066;-60
2022/11/21 00:25:25;;;;;;;15.77;7.03;;;;;;;5.78;100.00;100450.38;5091412;28;20485;-59
2022/11/21 00:27:51;;;;;;;17.55;7.63;;;;;;;5.71;100.00;100428.72;5095785;28;20019;-60
2022/11/21 00:30:17;;;;;;;26.88;8.20;;;;;;;5.73;100.00;100418.91;5111690;28;20072;-60
2022/11/21 00:32:45;;;;;;;21.52;7.85;;;;;;;5.76;100.00;100433.75;5106431;28;20060;-59
2022/11/21 00:35:10;;;;;;;21.17;8.02;;;;;;;5.80;100.00;100424.75;5091444;28;20427;-60
2022/11/21 00:37:38;;;;;;;21.60;7.95;;;;;;;5.79;100.00;100421.25;5090176;28;20113;-59
2022/11/21 00:40:04;;;;;;;22.23;7.25;;;;;;;5.78;100.00;100424.81;5090344;28;20036;-60
2022/11/21 00:42:31;;;;;;;20.83;8.15;;;;;;;5.75;100.00;100419.69;5090772;28;20024;-60
2022/11/21 00:44:56;;;;;;;23.83;7.50;;;;;;;5.71;100.00;100412.88;5106009;28;20117;-60
2022/11/21 00:47:21;;;;;;;18.65;7.82;;;;;;;5.69;100.00;100412.94;5111474;28;20028;-60
2022/11/21 00:49:47;;;;;;;24.92;8.15;;;;;;;5.68;100.00;100411.25;5096147;28;20020;-59
2022/11/21 00:52:13;;;;;;;20.92;7.80;;;;;;;5.68;100.00;100413.88;5090934;28;20054;-59
2022/11/21 00:54:38;;;;;;;20.45;7.65;;;;;;;5.67;100.00;100409.53;5093960;28;20024;-59
2022/11/21 00:57:04;;;;;;;19.23;7.03;;;;;;;5.68;100.00;100413.03;5094066;28;20024;-59
2022/11/21 00:59:29;;;;;;;27.80;8.30;;;;;;;5.63;100.00;100409.75;5094504;28;20035;-59
2022/11/21 01:01:54;;;;;;;17.98;7.32;;;;;;;5.66;100.00;100412.25;5101183;28;20540;-59
2022/11/21 01:04:20;;;;;;;21.20;7.18;;;;;;;5.53;100.00;100412.00;5109468;27;20031;-59
2022/11/21 01:06:46;;;;;;;19.58;6.18;;;;;;;5.52;100.00;100417.34;5094478;28;20039;-59
2022/11/21 01:09:12;;;;;;;14.02;6.38;;;;;;;5.44;100.00;100420.34;5094477;28;20073;-59
2022/11/21 01:11:38;;;;;;;16.23;6.53;;;;;;;5.45;100.00;100422.06;5094770;28;20078;-59
2022/11/21 01:14:03;;;;;;;15.93;6.18;;;;;;;5.33;100.00;100417.41;5099943;28;20543;-59
2022/11/21 01:16:29;;;;;;;15.00;6.68;;;;;;;5.34;100.00;100427.84;5096613;28;20032;-59
2022/11/21 01:18:55;;;;;;;12.13;5.90;;;;;;;5.37;100.00;100429.50;5089860;28;20044;-59
2022/11/21 01:21:26;;;;;;;20.50;7.43;;;;;;;5.35;100.00;100428.72;5094599;28;20039;-59
2022/11/21 01:23:53;;;;;;;18.27;6.78;;;;;;;5.37;100.00;100425.06;5098664;28;20036;-59
2022/11/21 01:26:21;;;;;;;18.63;6.65;;;;;;;5.41;100.00;100426.66;5093777;28;20076;-59
2022/11/21 01:28:47;;;;;;;22.58;6.75;;;;;;;5.41;100.00;100417.84;5094225;28;20028;-59
2022/11/21 01:31:13;;;;;;;16.38;6.45;;;;;;;5.42;100.00;100422.22;5126802;27;20036;-59
2022/11/21 01:33:39;;;;;;;17.13;5.95;;;;;;;5.36;100.00;100417.25;5095336;28;20044;-59
2022/11/21 01:36:06;;;;;;;11.85;6.50;;;;;;;5.36;100.00;100419.88;5102628;28;20028;-59
2022/11/21 01:38:33;;;;;;;21.35;6.45;;;;;;;5.28;100.00;100414.13;5108806;28;20039;-59
2022/11/21 01:40:58;;;;;;;13.65;5.95;;;;;;;5.27;100.00;100408.00;5093667;28;20276;-59
2022/11/21 01:43:29;;;;;;;16.13;6.72;;;;;;;5.29;100.00;100410.56;5127933;27;20036;-59
2022/11/21 01:45:59;;;;;;;13.52;6.30;;;;;;;5.28;100.00;100416.75;5075790;28;20036;-59
2022/11/21 01:48:36;;;;;;;14.60;6.38;;;;;;;5.26;100.00;100427.38;5094509;28;20061;-59
2022/11/21 01:51:25;;;;;;;12.80;5.78;;;;;;;5.28;100.00;100427.31;5094847;28;20020;-59
2022/11/21 01:54:01;;;;;;;13.43;6.03;;;;;;;5.29;100.00;100410.56;5073760;28;20039;-59
2022/11/21 01:56:30;;;;;;;15.73;6.10;;;;;;;5.33;100.00;100412.97;5093269;28;20107;-59
2022/11/21 01:58:59;;;;;;;17.40;6.43;;;;;;;5.32;100.00;100423.59;5093592;28;20020;-59
2022/11/21 02:01:26;;;;;;;11.98;5.72;;;;;;;5.29;100.00;100416.66;5093535;28;20074;-59
2022/11/21 02:03:53;;;;;;;18.13;6.72;;;;;;;5.27;100.00;100413.28;5093950;28;20031;-59
2022/11/21 02:06:19;;;;;;;9.70;6.00;;;;;;;5.21;100.00;100414.41;5092780;28;20463;-59
2022/11/21 02:08:45;;;;;;;8.80;5.40;;;;;;;5.09;100.00;100399.19;5093050;28;20040;-59
2022/11/21 02:11:23;;;;;;;10.10;5.40;;;;;;;5.06;100.00;100422.19;5109127;28;20042;-59
2022/11/21 02:13:48;;;;;;;13.40;5.30;;;;;;;5.07;100.00;100422.13;5112803;28;20093;-59
2022/11/21 02:16:14;;;;;;;12.02;5.55;;;;;;;4.96;100.00;100413.88;5113391;27;20032;-59
2022/11/21 02:18:40;;;;;;;12.10;5.82;;;;;;;4.99;100.00;100426.91;5113533;27;20641;-59
2022/11/21 02:21:44;;;;;;;13.45;6.40;;;;;;;5.04;100.00;100434.59;5113805;28;20524;-59
2022/11/21 02:24:48;;;;;;;11.50;6.00;;;;;;;5.07;100.00;100434.47;5070492;28;20067;-59
2022/11/21 02:27:15;;;;;;;12.57;6.05;;;;;;;4.95;100.00;100428.81;5065972;28;20100;-59
2022/11/21 02:29:42;;;;;;;16.45;6.93;;;;;;;5.02;100.00;100439.94;5104715;28;20146;-59
2022/11/21 02:32:08;;;;;;;9.80;5.72;;;;;;;5.02;100.00;100434.66;5099274;28;20399;-59
2022/11/21 02:34:33;;;;;;;11.95;5.55;;;;;;;4.89;100.00;100430.91;5096027;27;20107;-59
2022/11/21 02:37:00;;;;;;;15.63;6.07;;;;;;;4.87;100.00;100425.69;5106609;28;20100;-59
2022/11/21 02:39:31;;;;;;;8.32;5.38;;;;;;;4.91;100.00;100429.91;5125855;27;20024;-59
2022/11/21 02:42:08;;;;;;;14.10;5.85;;;;;;;4.87;100.00;100424.84;5094187;28;20107;-59
2022/11/21 02:44:58;;;;;;;12.48;6.07;;;;;;;4.95;100.00;100439.38;5104468;28;20028;-59
2022/11/21 02:47:25;;;;;;;11.30;6.00;;;;;;;4.93;100.00;100440.34;5092507;28;20065;-59
2022/11/21 02:50:07;;;;;;;10.55;5.93;;;;;;;4.93;100.00;100440.34;5092758;28;20024;-59
2022/11/21 02:52:33;;;;;;;12.75;6.15;;;;;;;4.94;100.00;100436.78;5086303;28;20027;-59
2022/11/21 02:54:59;;;;;;;14.57;6.25;;;;;;;4.98;100.00;100433.09;5112958;28;20539;-59
2022/11/21 02:57:24;;;;;;;14.93;7.30;;;;;;;4.96;100.00;100440.22;5112775;28;20069;-59
2022/11/21 02:59:50;;;;;;;21.08;9.88;;;;;;;4.96;100.00;100433.16;5094882;28;20067;-59
2022/11/21 03:02:15;;;;;;;18.27;10.32;;;;;;;5.01;100.00;100436.44;5109310;28;20546;-59
2022/11/21 03:04:44;;;;;;;20.40;12.85;;;;;;;4.97;100.00;100426.97;5092521;28;20386;-59
2022/11/21 03:07:09;;;;;;;24.17;15.82;;;;;;;4.95;100.00;100434.09;5074418;28;20028;-59
2022/11/21 03:09:34;;;;;;;25.33;16.25;;;;;;;4.97;100.00;100434.00;5092446;28;20035;-59
2022/11/21 03:12:08;;;;;;;35.85;18.42;;;;;;;4.91;100.00;100429.91;5092383;28;20051;-59
2022/11/21 03:14:34;;;;;;;30.17;20.35;;;;;;;5.00;100.00;100433.91;5090811;28;20390;-59
2022/11/21 03:16:59;;;;;;;29.85;21.73;;;;;;;4.94;100.00;100426.25;5111802;28;20413;-59
2022/11/21 03:19:25;;;;;;;32.45;21.42;;;;;;;4.97;100.00;100426.09;5092540;28;20028;-59
2022/11/21 03:21:50;;;;;;;34.20;21.08;;;;;;;4.86;100.00;100426.63;5124910;27;20031;-59
2022/11/21 03:24:16;;;;;;;34.35;22.48;;;;;;;4.84;100.00;100436.38;5092951;28;20032;-59
2022/11/21 03:26:41;;;;;;;38.70;23.17;;;;;;;4.91;100.00;100431.66;5091247;28;20031;-59
2022/11/21 03:29:07;;;;;;;48.78;23.75;;;;;;;4.84;100.00;100412.66;5092024;28;20035;-59
2022/11/21 03:31:33;;;;;;;52.88;24.45;;;;;;;4.86;100.00;100407.34;5092055;28;20035;-59
2022/11/21 03:33:58;;;;;;;60.08;24.88;;;;;;;4.92;100.00;100417.59;5093010;28;20040;-59
2022/11/21 03:36:26;;;;;;;43.65;25.42;;;;;;;4.89;100.00;100421.22;5109910;28;20122;-59
2022/11/21 03:38:55;;;;;;;55.75;24.90;;;;;;;4.83;100.00;100418.00;5109820;28;20027;-59
2022/11/21 03:41:30;;;;;;;58.47;26.20;;;;;;;4.84;100.00;100425.84;5091274;28;20390;-59
2022/11/21 03:44:01;;;;;;;66.18;26.25;;;;;;;4.86;100.00;100412.59;5095606;28;20467;-59
2022/11/21 03:46:28;;;;;;;51.72;26.52;;;;;;;4.90;100.00;100412.38;5112278;28;20038;-59
2022/11/21 03:48:53;;;;;;;57.67;23.88;;;;;;;4.85;100.00;100417.00;5112425;28;20023;-59
2022/11/21 03:51:19;;;;;;;58.08;26.23;;;;;;;4.85;100.00;100418.78;5109860;28;20023;-59
2022/11/21 03:53:45;;;;;;;49.38;26.85;;;;;;;4.84;100.00;100420.56;5091750;28;20028;-59
2022/11/21 03:56:11;;;;;;;59.67;25.92;;;;;;;4.82;100.00;100413.66;5090835;28;20055;-59
2022/11/21 03:58:37;;;;;;;53.45;25.52;;;;;;;4.85;100.00;100426.69;5079760;28;20378;-59
2022/11/21 04:01:04;;;;;;;52.83;25.90;;;;;;;4.86;100.00;100424.00;5089877;28;20024;-60
2022/11/21 04:03:29;;;;;;;53.92;25.02;;;;;;;4.77;100.00;100425.25;5091837;28;20032;-59
2022/11/21 04:05:54;;;;;;;62.90;25.58;;;;;;;4.78;100.00;100432.22;5087191;28;20036;-59
2022/11/21 04:08:20;;;;;;;36.45;26.23;;;;;;;4.87;100.00;100425.69;5091259;28;20043;-59
2022/11/21 04:10:50;;;;;;;54.03;25.13;;;;;;;4.85;100.00;100424.88;5074595;28;20601;-59
2022/11/21 04:13:16;;;;;;;61.42;26.73;;;;;;;4.83;100.00;100426.75;5083596;28;20086;-59
2022/11/21 04:15:42;;;;;;;93.40;27.88;;;;;;;4.77;100.00;100412.09;5073295;28;20024;-59
2022/11/21 04:18:07;;;;;;;70.45;26.63;;;;;;;4.76;100.00;100418.31;5113167;27;20052;-59
2022/11/21 04:20:33;;;;;;;108.65;27.80;;;;;;;4.77;100.00;100432.31;5090625;28;20020;-59
2022/11/21 04:22:58;;;;;;;59.85;28.67;;;;;;;4.82;100.00;100425.03;5075161;28;20044;-59
2022/11/21 04:25:24;;;;;;;65.32;27.92;;;;;;;4.82;100.00;100425.03;5089043;28;20024;-59
2022/11/21 04:27:54;;;;;;;38.67;26.63;;;;;;;4.88;100.00;100424.78;5095791;28;20013;-59
2022/11/21 04:30:19;;;;;;;65.70;29.33;;;;;;;4.86;100.00;100423.13;5095484;28;20035;-59
2022/11/21 04:32:46;;;;;;;49.50;28.88;;;;;;;4.93;100.00;100414.00;5095000;28;20057;-59
2022/11/21 04:35:11;;;;;;;46.20;28.92;;;;;;;4.92;100.00;100402.63;5084522;28;20032;-59
2022/11/21 04:37:38;;;;;;;53.55;27.17;;;;;;;4.87;100.00;100403.75;5085472;28;20025;-59
2022/11/21 04:40:04;;;;;;;68.25;28.10;;;;;;;4.81;100.00;100399.63;5083462;28;20035;-59
2022/11/21 04:42:29;;;;;;;59.85;27.77;;;;;;;4.75;100.00;100392.88;5078096;28;20032;-59
2022/11/21 04:44:54;;;;;;;66.70;26.98;;;;;;;4.71;100.00;100391.31;5075627;28;20084;-59
2022/11/21 04:47:20;;;;;;;39.33;25.95;;;;;;;4.76;100.00;100383.16;5093966;28;20148;-59
2022/11/21 04:49:45;;;;;;;34.58;26.27;;;;;;;4.79;100.00;100383.03;5092422;28;20475;-59
2022/11/21 04:52:11;;;;;;;33.58;26.02;;;;;;;4.74;100.00;100364.81;5093812;28;20036;-59
2022/11/21 04:54:37;;;;;;;45.47;24.10;;;;;;;4.76;100.00;100384.06;5092764;28;20491;-59
2022/11/21 04:57:02;;;;;;;37.17;26.40;;;;;;;4.74;100.00;100380.63;5095778;28;20036;-59
2022/11/21 04:59:28;;;;;;;36.08;24.20;;;;;;;4.67;100.00;100379.19;5109176;28;20032;-59
2022/11/21 05:01:53;;;;;;;34.50;23.30;;;;;;;4.63;100.00;100382.06;5083256;28;20619;-59
2022/11/21 05:04:18;;;;;;;34.45;22.90;;;;;;;4.59;100.00;100383.97;5093510;28;20043;-59
2022/11/21 05:06:44;;;;;;;29.30;23.60;;;;;;;4.59;100.00;100376.06;5095660;28;20395;-59
2022/11/21 05:09:10;;;;;;;34.00;22.77;;;;;;;4.43;100.00;100375.91;5097347;28;20072;-59
2022/11/21 05:14:20;;;;;;;26.63;20.92;;;;;;;4.52;100.00;100375.47;5095921;28;20051;-59
2022/11/21 05:16:45;;;;;;;24.63;19.63;;;;;;;4.48;100.00;100365.16;5098310;28;20028;-59
2022/11/21 05:19:11;;;;;;;28.85;19.70;;;;;;;4.49;100.00;100367.72;5093218;28;20060;-59
2022/11/21 05:21:37;;;;;;;32.55;20.75;;;;;;;4.46;100.00;100367.84;5094212;28;20500;-59
2022/11/21 05:24:03;;;;;;;36.38;22.77;;;;;;;4.46;100.00;100362.59;5094519;28;20039;-59
2022/11/21 05:26:29;;;;;;;28.20;21.75;;;;;;;4.50;100.00;100364.19;5108487;28;20179;-59
2022/11/21 05:28:54;;;;;;;27.83;21.30;;;;;;;4.53;100.00;100360.56;5114717;28;20506;-59
2022/11/21 05:31:20;;;;;;;27.05;20.25;;;;;;;4.48;100.00;100354.63;5114672;28;20032;-59
2022/11/21 05:33:45;;;;;;;26.50;21.27;;;;;;;4.47;100.00;100345.88;5107307;28;20446;-59
2022/11/21 05:36:10;;;;;;;25.33;20.15;;;;;;;4.49;100.00;100348.44;5113052;28;20040;-60
2022/11/21 05:38:36;;;;;;;26.50;19.50;;;;;;;4.50;100.00;100347.50;5096355;28;20042;-59
2022/11/21 05:41:01;;;;;;;27.25;20.00;;;;;;;4.45;100.00;100336.34;5112743;28;20066;-59
2022/11/21 05:43:45;;;;;;;25.08;18.83;;;;;;;4.45;100.00;100333.72;5106705;28;20088;-59
2022/11/21 05:46:16;;;;;;;24.40;18.17;;;;;;;4.39;100.00;100326.94;5093799;28;20039;-59
2022/11/21 05:48:42;;;;;;;24.40;18.17;;;;;;;4.46;100.00;100340.69;5093762;28;20075;-59
2022/11/21 05:51:07;;;;;;;20.10;15.98;;;;;;;4.52;100.00;100341.25;5082293;28;20507;-59
2022/11/21 05:53:34;;;;;;;22.50;15.88;;;;;;;4.54;100.00;100333.28;5095002;28;20106;-59
2022/11/21 05:56:14;;;;;;;24.65;15.30;;;;;;;4.60;100.00;100337.41;5099024;28;20065;-59
2022/11/21 05:58:41;;;;;;;25.42;15.18;;;;;;;4.60;100.00;100325.09;5113202;28;20023;-59
2022/11/21 06:01:08;;;;;;;21.48;15.40;;;;;;;4.68;100.00;100328.22;5112017;28;20046;-59
2022/11/21 06:03:36;;;;;;;23.92;15.00;;;;;;;4.70;100.00;100323.72;5127681;27;20028;-59
2022/11/21 06:06:05;;;;;;;22.77;15.27;;;;;;;4.71;100.00;100329.88;5093379;28;20101;-59
2022/11/21 06:08:33;;;;;;;20.45;16.08;;;;;;;4.78;100.00;100333.91;5093927;28;20036;-59
2022/11/21 06:10:59;;;;;;;24.63;17.00;;;;;;;4.81;100.00;100335.56;5092848;28;20035;-59
2022/11/21 06:13:25;;;;;;;25.60;18.02;;;;;;;4.82;100.00;100332.81;5096961;28;20344;-59
2022/11/21 06:15:52;;;;;;;25.27;19.05;;;;;;;4.83;100.00;100331.91;5092402;28;20036;-59
2022/11/21 06:18:19;;;;;;;25.27;19.50;;;;;;;4.79;100.00;100309.25;5095806;28;20050;-59
2022/11/21 06:20:45;;;;;;;29.08;22.00;;;;;;;4.87;100.00;100328.19;5098074;28;20771;-59
2022/11/21 06:23:11;;;;;;;27.50;20.92;;;;;;;4.85;100.00;100324.78;5091737;28;20026;-59
2022/11/21 06:25:37;;;;;;;27.35;22.80;;;;;;;4.85;100.00;100318.66;5097527;28;20020;-59
2022/11/21 06:28:02;;;;;;;30.83;24.75;;;;;;;4.85;100.00;100316.88;5092018;28;20544;-59
2022/11/21 06:30:28;;;;;;;28.92;23.20;;;;;;;4.83;100.00;100315.25;5128906;27;20032;-59
2022/11/21 06:32:53;;;;;;;32.47;23.75;;;;;;;4.83;100.00;100310.84;5093042;28;20066;-59
2022/11/21 06:35:18;;;;;;;35.75;25.58;;;;;;;4.81;100.00;100307.41;5096854;28;20027;-59
2022/11/21 06:37:44;;;;;;;33.55;26.00;;;;;;;4.83;100.00;100310.00;5091522;28;20455;-59
2022/11/21 06:40:13;;;;;;;28.17;24.15;;;;;;;4.77;100.00;100305.88;5092429;28;20032;-60
2022/11/21 06:42:38;;;;;;;31.98;25.83;;;;;;;4.78;100.00;100303.16;5092423;28;20032;-59
2022/11/21 06:45:04;;;;;;;31.90;26.05;;;;;;;4.76;100.00;100306.78;5096932;28;20038;-59
2022/11/21 06:47:33;;;;;;;31.38;25.60;;;;;;;4.76;100.00;100299.75;5091393;28;20418;-59
2022/11/21 06:50:02;;;;;;;29.67;24.30;;;;;;;4.77;100.00;100304.09;5092640;28;20395;-59
2022/11/21 06:52:27;;;;;;;32.22;25.27;;;;;;;4.77;100.00;100304.09;5091647;28;20119;-59
2022/11/21 06:54:52;;;;;;;31.00;25.17;;;;;;;4.82;100.00;100305.63;5097837;28;20135;-60
2022/11/21 06:57:18;;;;;;;30.85;23.63;;;;;;;4.75;100.00;100298.03;5129136;27;20449;-59
2022/11/21 06:59:44;;;;;;;31.13;24.05;;;;;;;4.76;100.00;100310.28;5104902;28;20032;-59
2022/11/21 07:02:14;;;;;;;31.75;24.20;;;;;;;4.75;100.00;100287.50;5106154;28;20484;-59
2022/11/21 07:04:39;;;;;;;33.75;23.60;;;;;;;4.75;100.00;100291.91;5092842;28;20035;-59
2022/11/21 07:07:05;;;;;;;27.45;22.63;;;;;;;4.68;100.00;100282.59;5092177;28;20498;-59
2022/11/21 07:09:32;;;;;;;27.50;22.83;;;;;;;4.74;100.00;100290.22;5094176;28;20064;-59
2022/11/21 07:13:20;;;;;;;29.50;22.95;;;;;;;4.74;100.00;100279.69;5091610;28;20035;-59
2022/11/21 07:14:43;;;;;;;27.25;21.52;;;;;;;4.74;100.00;100284.94;5092992;28;20039;-59
2022/11/21 07:17:13;;;;;;;25.85;20.95;;;;;;;4.76;100.00;100288.34;5108054;28;20027;-59
2022/11/21 07:19:39;;;;;;;25.55;21.65;;;;;;;4.80;100.00;100282.00;5112207;28;20031;-59
2022/11/21 07:22:05;;;;;;;25.63;20.83;;;;;;;4.79;100.00;100288.19;5112534;28;20023;-59
2022/11/21 07:24:30;;;;;;;24.55;21.15;;;;;;;4.82;100.00;100274.03;5105641;28;20107;-59
2022/11/21 07:26:56;;;;;;;29.38;20.85;;;;;;;4.82;100.00;100272.22;5081791;28;20041;-59
2022/11/21 07:29:22;;;;;;;29.85;20.08;;;;;;;4.84;100.00;100275.66;5078948;28;20034;-60
2022/11/21 07:31:47;;;;;;;29.23;20.25;;;;;;;4.81;100.00;100265.28;5092153;28;20255;-60
2022/11/21 07:34:12;;;;;;;23.30;18.67;;;;;;;4.87;100.00;100277.28;5090557;28;20502;-61
2022/11/21 07:36:38;;;;;;;24.42;19.98;;;;;;;4.86;100.00;100276.44;5083881;28;20498;-60
2022/11/21 07:39:05;;;;;;;31.67;19.65;;;;;;;4.86;100.00;100279.06;5092342;28;20366;-61
2022/11/21 07:41:31;;;;;;;29.38;17.83;;;;;;;4.91;100.00;100279.72;5090037;28;20093;-60
2022/11/21 07:43:57;;;;;;;25.45;17.30;;;;;;;4.91;100.00;100285.00;5095131;28;20051;-60
2022/11/21 07:46:22;;;;;;;21.88;15.70;;;;;;;4.90;100.00;100275.34;5091589;28;20055;-60
2022/11/21 07:48:47;;;;;;;21.58;15.93;;;;;;;4.92;100.00;100280.56;5090256;28;20056;-60
2022/11/21 07:51:13;;;;;;;21.15;15.70;;;;;;;4.94;100.00;100281.31;5088731;28;20126;-61
2022/11/21 07:53:38;;;;;;;19.92;15.13;;;;;;;4.96;100.00;100276.84;5090974;28;20034;-61
2022/11/21 07:56:04;;;;;;;21.92;14.98;;;;;;;4.91;100.00;100255.13;5114329;27;20044;-61
2022/11/21 07:58:29;;;;;;;22.17;14.38;;;;;;;5.01;100.00;100278.31;5071683;28;20111;-61
2022/11/21 08:00:55;;;;;;;20.77;13.60;;;;;;;5.01;100.00;100272.22;5081710;28;20066;-61
2022/11/21 08:03:21;;;;;;;22.75;13.95;;;;;;;5.01;100.00;100262.50;5092740;28;20024;-61
2022/11/21 08:05:47;;;;;;;17.55;12.80;;;;;;;5.05;100.00;100267.63;5112604;27;20110;-61
2022/11/21 08:08:14;;;;;;;19.52;12.18;;;;;;;5.04;100.00;100266.78;5092967;28;20403;-61
2022/11/21 08:10:44;;;;;;;18.20;13.15;;;;;;;5.01;100.00;100261.66;5096949;28;20032;-62
2022/11/21 08:13:10;;;;;;;21.27;11.20;;;;;;;4.99;100.00;100261.72;5116183;28;20035;-60
2022/11/21 08:15:41;;;;;;;19.95;11.95;;;;;;;4.95;100.00;100270.72;5111725;28;20051;-60
2022/11/21 08:18:11;;;;;;;15.40;11.48;;;;;;;4.91;100.00;100255.13;5096643;28;20081;-60
2022/11/21 08:20:36;;;;;;;;;;;;;;;5.02;100.00;100255.44;5110088;27;20480;-60
2022/11/21 08:23:01;;;;;;;18.88;11.63;;;;;;;4.97;100.00;100260.97;5092285;28;19946;-60
2022/11/21 08:25:27;;;;;;;18.90;11.63;;;;;;;4.95;100.00;100252.28;5101139;28;20063;-60
2022/11/21 08:27:57;;;;;;;16.77;10.88;;;;;;;4.93;100.00;100243.59;5110596;27;20057;-60
2022/11/21 08:30:26;;;;;;;;;;;;;;;5.03;100.00;100243.13;5094903;28;20669;-60
2022/11/21 08:32:51;;;;;;;15.55;10.77;;;;;;;4.96;100.00;100239.94;5080592;28;19916;-61
2022/11/21 08:35:17;;;;;;;20.25;11.02;;;;;;;4.97;100.00;100231.09;5094049;28;20035;-60
2022/11/21 08:37:42;;;;;;;14.77;11.18;;;;;;;4.99;100.00;100221.34;5111189;27;20031;-60
2022/11/21 08:40:08;;;;;;;18.58;10.45;;;;;;;4.97;100.00;100217.94;5094429;28;20388;-60
2022/11/21 08:42:33;;;;;;;15.25;10.02;;;;;;;4.99;100.00;100218.72;5092874;28;20020;-60
2022/11/21 08:45:01;;;;;;;16.98;10.13;;;;;;;4.95;100.00;100206.63;5091778;28;20036;-60
2022/11/21 08:47:27;;;;;;;18.98;10.52;;;;;;;5.03;100.00;100220.28;5093923;28;20036;-60
2022/11/21 08:49:53;;;;;;;18.95;10.82;;;;;;;5.03;100.00;100222.03;5100386;28;20062;-60
2022/11/21 08:52:18;;;;;;;12.98;9.50;;;;;;;5.08;100.00;100225.31;5097119;28;20031;-60
2022/11/21 08:54:46;;;;;;;13.48;9.52;;;;;;;5.09;100.00;100221.72;5092805;28;20035;-60
2022/11/21 08:57:12;;;;;;;17.63;10.00;;;;;;;5.11;100.00;100219.88;5097766;28;20031;-60
2022/11/21 08:59:39;;;;;;;14.18;10.25;;;;;;;5.11;100.00;100209.34;5100622;28;20524;-60
2022/11/21 09:02:09;;;;;;;14.27;9.88;;;;;;;5.15;100.00;100209.13;5094382;28;20027;-60
2022/11/21 09:04:34;;;;;;;18.27;9.40;;;;;;;5.18;100.00;100214.22;5110032;28;20102;-60
2022/11/21 09:07:03;;;;;;;15.88;8.93;;;;;;;5.24;100.00;100208.63;5094073;28;20103;-60
2022/11/21 09:09:28;;;;;;;15.57;9.45;;;;;;;5.28;100.00;100201.41;5095218;28;20504;-60
2022/11/21 09:11:54;;;;;;;16.27;9.77;;;;;;;5.32;100.00;100204.75;5094119;28;20063;-60
2022/11/21 09:19:48;;;;;;;13.90;8.45;;;;;;;5.42;100.00;100206.00;5093669;28;20063;-60
2022/11/21 09:22:14;;;;;;;11.88;8.45;;;;;;;5.49;100.00;100206.50;5096817;28;20016;-60
2022/11/21 09:24:39;;;;;;;14.25;8.13;;;;;;;5.52;100.00;100203.72;5088157;28;20401;-60
2022/11/21 09:27:04;;;;;;;17.23;8.48;;;;;;;5.63;100.00;100204.84;5086883;28;20039;-60
2022/11/21 09:29:30;;;;;;;14.48;8.23;;;;;;;5.70;100.00;100208.00;5118506;27;20036;-60
2022/11/21 09:31:55;;;;;;;13.63;7.93;;;;;;;5.72;100.00;100192.97;5104183;28;20036;-61
2022/11/21 09:34:21;;;;;;;14.93;8.48;;;;;;;5.79;100.00;100182.91;5094394;28;20505;-60
2022/11/21 09:36:46;;;;;;;15.20;8.50;;;;;;;5.78;100.00;100168.88;5126275;27;20111;-61
2022/11/21 09:39:12;;;;;;;15.13;7.68;;;;;;;5.90;100.00;100173.47;5086246;28;20066;-60
2022/11/21 09:42:06;;;;;;;11.57;7.15;;;;;;;6.00;100.00;100168.59;5088263;28;20016;-60
2022/11/21 09:45:13;;;;;;;12.43;7.60;;;;;;;6.16;100.00;100173.03;5076220;28;20028;-60
2022/11/21 09:47:46;;;;;;;15.75;7.28;;;;;;;6.17;100.00;100177.38;5077780;28;20047;-60
2022/11/21 09:50:11;;;;;;;9.98;7.05;;;;;;;6.28;100.00;100159.13;5093023;28;20027;-60
2022/11/21 09:52:49;;;;;;;15.40;8.30;;;;;;;6.44;100.00;100165.28;5091137;28;20028;-60
2022/11/21 09:55:20;;;;;;;11.05;6.82;;;;;;;6.64;99.86;100157.97;5082644;28;20475;-60
2022/11/21 09:57:47;;;;;;;9.80;6.43;;;;;;;6.90;97.83;100164.38;5091468;28;20055;-60
2022/11/21 10:00:19;;;;;;;14.07;7.35;;;;;;;7.01;97.35;100157.50;5108755;27;20432;-60
2022/11/21 10:02:45;;;;;;;12.18;6.15;;;;;;;7.21;95.62;100148.41;5094690;28;20020;-61
2022/11/21 10:05:16;;;;;;;14.70;6.32;;;;;;;7.36;93.89;100159.84;5092945;28;20035;-61
2022/11/21 10:07:43;;;;;;;12.63;6.20;;;;;;;7.35;92.72;100149.34;5095173;28;20055;-61
2022/11/21 10:10:16;;;;;;;13.82;6.70;;;;;;;7.37;92.86;100150.09;5091345;28;20048;-60
2022/11/21 10:12:49;;;;;;;11.90;5.63;;;;;;;7.45;92.18;100146.03;5089587;28;20475;-61
2022/11/21 10:15:34;;;;;;;13.85;6.00;;;;;;;7.65;92.64;100144.81;5100510;28;20012;-61
2022/11/21 10:18:38;;;;;;;11.52;6.03;;;;;;;7.85;92.05;100135.63;5099924;28;20044;-61
2022/11/21 10:21:32;;;;;;;9.77;5.57;;;;;;;7.88;90.53;100132.78;5071948;28;20023;-60
2022/11/21 10:24:25;;;;;;;14.25;6.38;;;;;;;8.07;89.89;100121.03;5089960;28;20319;-61
2022/11/21 10:26:55;;;;;;;8.55;5.22;;;;;;;8.41;89.45;100112.63;5092265;28;20035;-61
2022/11/21 10:29:34;;;;;;;11.57;4.90;;;;;;;8.76;87.18;100111.19;5092773;28;20028;-61
2022/11/21 10:32:25;;;;;;;11.70;5.32;;;;;;;8.94;85.81;100103.78;5092635;28;20123;-61
2022/11/21 10:34:55;;;;;;;13.20;4.63;;;;;;;8.79;85.24;100108.34;5101036;28;20027;-61
2022/11/21 10:37:39;;;;;;;12.63;4.88;;;;;;;8.56;85.96;100080.72;5084609;28;20034;-61
2022/11/21 10:40:21;;;;;;;9.88;4.85;;;;;;;8.49;85.77;100098.84;5093022;28;20427;-61
2022/11/21 10:46:08;;;;;;;10.95;4.68;;;;;;;8.50;85.53;100095.25;5079562;28;20043;-61
2022/11/21 10:48:34;;;;;;;11.60;5.20;;;;;;;8.82;84.82;100089.56;5088870;28;20032;-61
2022/11/21 10:51:14;;;;;;;12.40;4.57;;;;;;;9.28;82.76;100095.19;5089526;28;20028;-61
2022/11/21 10:56:25;;;;;;;13.77;4.57;;;;;;;10.06;77.96;100083.47;5090233;28;20089;-61
2022/11/21 10:58:56;;;;;;;8.27;3.58;;;;;;;10.24;75.82;100070.63;5092762;28;20032;-61
2022/11/21 11:01:23;;;;;;;;;;;;;;;10.89;82.47;100075.47;5092997;28;20055;-61
2022/11/21 11:04:11;;;;;;;13.90;4.57;;;;;;;11.17;76.72;100067.16;5093459;28;19920;-61
2022/11/21 11:06:39;;;;;;;8.88;4.78;;;;;;;11.22;71.87;100065.84;5094990;28;20034;-61
2022/11/21 11:09:06;;;;;;;15.10;4.45;;;;;;;11.20;71.59;100059.78;5084721;28;20038;-61
2022/11/21 11:11:32;;;;;;;12.70;4.55;;;;;;;11.35;73.05;100063.03;5081264;28;20024;-61
2022/11/21 11:14:04;;;;;;;11.95;4.60;;;;;;;11.60;69.90;100059.28;5091900;28;20569;-61
2022/11/21 11:16:33;;;;;;;9.30;4.20;;;;;;;11.67;68.35;100059.63;5092895;28;20044;-61
2022/11/21 11:19:02;;;;;;;10.77;4.38;;;;;;;11.90;68.28;100050.66;5091752;28;20056;-61
2022/11/21 11:21:46;;;;;;;8.90;4.15;;;;;;;12.13;70.37;100046.13;5106964;28;20093;-61
2022/11/21 11:24:11;;;;;;;7.95;3.90;;;;;;;12.14;66.14;100050.47;5091308;28;20514;-61
2022/11/21 11:26:46;;;;;;;12.57;4.05;;;;;;;12.06;65.89;100042.28;5088168;28;20047;-61
2022/11/21 11:29:14;;;;;;;8.55;4.00;;;;;;;12.04;66.00;100036.22;5089636;28;20036;-61
2022/11/21 11:31:53;;;;;;;7.60;4.25;;;;;;;12.37;66.16;100023.72;5086401;28;20032;-62
2022/11/21 11:34:20;;;;;;;8.80;4.50;;;;;;;12.69;64.21;100032.50;5091283;28;20395;-61